Time,TemperatureF,DewpointF,PressureIn,WindDirection,WindDirectionDegrees,WindSpeedMPH,WindSpeedGustMPH,Humidity,HourlyPrecipIn,Conditions,Clouds,dailyrainin,SoftwareType,DateUTC
2013-04-05 00:00:00,41.0,33.0,30.09,East,90,0.0,4.0,73,0.07,,,0.00,Weather View 32 v70,2013-04-05 04:00:00,
2013-04-05 00:05:00,41.0,33.0,30.08,NE,45,0.0,3.0,73,0.07,,,0.00,Weather View 32 v70,2013-04-05 04:05:00,
2013-04-05 00:10:00,41.0,33.0,30.08,South,180,0.0,3.0,73,0.07,,,0.01,Weather View 32 v70,2013-04-05 04:10:00,
2013-04-05 00:15:00,41.0,32.7,30.07,SW,225,0.0,3.0,72,0.06,,,0.01,Weather View 32 v70,2013-04-05 04:15:00,
2013-04-05 00:20:00,41.0,33.0,30.07,SW,225,0.0,3.0,73,0.07,,,0.02,Weather View 32 v70,2013-04-05 04:20:00,
2013-04-05 00:25:00,41.0,32.7,30.06,NE,45,0.0,3.0,72,0.06,,,0.02,Weather View 32 v70,2013-04-05 04:25:00,
2013-04-05 00:30:00,41.0,32.7,30.06,NW,315,0.0,3.0,72,0.06,,,0.03,Weather View 32 v70,2013-04-05 04:30:00,
2013-04-05 00:35:00,41.0,32.7,30.06,WNW,292,0.0,3.0,72,0.07,,,0.04,Weather View 32 v70,2013-04-05 04:35:00,
2013-04-05 00:40:00,41.0,32.7,30.06,West,270,0.0,3.0,72,0.06,,,0.04,Weather View 32 v70,2013-04-05 04:40:00,
2013-04-05 00:44:00,41.0,32.7,30.06,West,270,0.0,3.0,72,0.06,,,0.04,Weather View 32 v70,2013-04-05 04:44:00,
2013-04-05 00:50:00,41.0,32.7,30.06,West,270,0.0,3.0,72,0.07,,,0.06,Weather View 32 v70,2013-04-05 04:50:00,
2013-04-05 00:55:00,41.0,32.7,30.06,West,270,0.0,3.0,72,0.06,,,0.06,Weather View 32 v70,2013-04-05 04:55:00,
2013-04-05 01:00:00,41.0,32.7,30.06,West,270,0.0,3.0,72,0.07,,,0.07,Weather View 32 v70,2013-04-05 05:00:00,
2013-04-05 01:05:00,41.0,32.7,30.06,West,270,0.0,3.0,72,0.07,,,0.07,Weather View 32 v70,2013-04-05 05:05:00,
2013-04-05 01:10:00,41.0,32.7,30.06,NW,315,0.0,3.0,72,0.07,,,0.08,Weather View 32 v70,2013-04-05 05:10:00,
2013-04-05 01:15:00,41.0,32.7,30.05,NW,315,0.0,2.0,72,0.07,,,0.08,Weather View 32 v70,2013-04-05 05:15:00,
2013-04-05 01:25:00,41.0,32.7,30.05,NW,315,0.0,2.0,72,0.07,,,0.09,Weather View 32 v70,2013-04-05 05:25:00,
2013-04-05 01:30:00,41.0,32.7,30.05,NW,315,0.0,2.0,72,0.07,,,0.10,Weather View 32 v70,2013-04-05 05:30:00,
2013-04-05 01:35:00,41.0,32.7,30.05,NW,315,0.0,2.0,72,0.06,,,0.10,Weather View 32 v70,2013-04-05 05:35:00,
2013-04-05 01:40:00,41.0,32.7,30.05,NW,315,0.0,2.0,72,0.07,,,0.11,Weather View 32 v70,2013-04-05 05:40:00,
2013-04-05 01:45:00,41.0,32.7,30.05,NW,315,0.0,2.0,72,0.07,,,0.11,Weather View 32 v70,2013-04-05 05:45:00,
2013-04-05 01:55:00,41.0,32.3,30.04,West,270,0.0,2.0,71,0.06,,,0.12,Weather View 32 v70,2013-04-05 05:55:00,
2013-04-05 02:05:00,41.0,32.3,30.04,West,270,0.0,0.0,71,0.06,,,0.13,Weather View 32 v70,2013-04-05 06:05:00,
2013-04-05 02:15:00,41.0,32.7,30.03,West,270,0.0,0.0,72,0.06,,,0.14,Weather View 32 v70,2013-04-05 06:15:00,
2013-04-05 02:20:00,41.0,32.7,30.03,West,270,0.0,0.0,72,0.06,,,0.15,Weather View 32 v70,2013-04-05 06:20:00,
2013-04-05 02:25:00,41.0,32.3,30.03,West,270,0.0,0.0,71,0.06,,,0.15,Weather View 32 v70,2013-04-05 06:25:00,
2013-04-05 02:30:00,41.0,32.3,30.03,West,270,0.0,0.0,71,0.06,,,0.16,Weather View 32 v70,2013-04-05 06:30:00,
2013-04-05 02:35:00,42.0,33.3,30.02,West,270,0.0,0.0,71,0.06,,,0.16,Weather View 32 v70,2013-04-05 06:35:00,
2013-04-05 02:40:00,42.0,33.3,30.02,West,270,0.0,0.0,71,0.06,,,0.17,Weather View 32 v70,2013-04-05 06:40:00,
2013-04-05 02:45:00,42.0,33.3,30.03,SE,135,0.0,0.0,71,0.06,,,0.17,Weather View 32 v70,2013-04-05 06:45:00,
2013-04-05 02:55:00,42.0,33.3,30.02,SE,135,0.0,0.0,71,0.06,,,0.18,Weather View 32 v70,2013-04-05 06:55:00,
2013-04-05 03:00:00,42.0,33.3,30.02,SE,135,0.0,0.0,71,0.05,,,0.18,Weather View 32 v70,2013-04-05 07:00:00,
2013-04-05 03:05:00,42.0,33.3,30.02,West,270,0.0,3.0,71,0.06,,,0.19,Weather View 32 v70,2013-04-05 07:05:00,
2013-04-05 03:10:00,42.0,33.3,30.02,NW,315,0.0,3.0,71,0.05,,,0.19,Weather View 32 v70,2013-04-05 07:10:00,
2013-04-05 03:20:00,42.0,33.3,30.02,South,180,0.0,3.0,71,0.05,,,0.20,Weather View 32 v70,2013-04-05 07:20:00,
2013-04-05 03:25:00,42.0,33.3,30.02,South,180,0.0,3.0,71,0.05,,,0.20,Weather View 32 v70,2013-04-05 07:25:00,
2013-04-05 03:30:00,42.0,33.3,30.02,South,180,0.0,3.0,71,0.05,,,0.21,Weather View 32 v70,2013-04-05 07:30:00,
2013-04-05 03:40:00,42.0,33.3,30.03,West,270,0.0,3.0,71,0.05,,,0.22,Weather View 32 v70,2013-04-05 07:40:00,
2013-04-05 03:45:00,42.0,33.3,30.04,West,270,0.0,3.0,71,0.05,,,0.22,Weather View 32 v70,2013-04-05 07:45:00,
2013-04-05 03:50:00,42.0,33.3,30.04,West,270,0.0,3.0,71,0.04,,,0.22,Weather View 32 v70,2013-04-05 07:50:00,
2013-04-05 04:00:00,42.0,33.3,30.04,NW,315,0.0,3.0,71,0.05,,,0.23,Weather View 32 v70,2013-04-05 08:00:00,
2013-04-05 04:05:00,42.0,33.3,30.03,NW,315,0.0,0.0,71,0.05,,,0.24,Weather View 32 v70,2013-04-05 08:05:00,
2013-04-05 04:10:00,42.0,33.3,30.03,NW,315,0.0,0.0,71,0.05,,,0.24,Weather View 32 v70,2013-04-05 08:10:00,
2013-04-05 04:15:00,43.0,34.6,30.04,NW,315,0.0,0.0,72,0.04,,,0.24,Weather View 32 v70,2013-04-05 08:15:00,
2013-04-05 04:20:00,43.0,34.6,30.04,NW,315,0.0,0.0,72,0.05,,,0.25,Weather View 32 v70,2013-04-05 08:20:00,
2013-04-05 04:25:00,43.0,34.6,30.04,NW,315,0.0,2.0,72,0.05,,,0.25,Weather View 32 v70,2013-04-05 08:25:00,
2013-04-05 04:35:00,43.0,34.6,30.04,West,270,0.0,2.0,72,0.05,,,0.26,Weather View 32 v70,2013-04-05 08:35:00,
2013-04-05 04:40:00,43.0,34.6,30.04,West,270,0.0,2.0,72,0.04,,,0.26,Weather View 32 v70,2013-04-05 08:40:00,
2013-04-05 04:45:00,43.0,34.6,30.05,West,270,0.0,2.0,72,0.04,,,0.26,Weather View 32 v70,2013-04-05 08:45:00,
2013-04-05 04:50:00,43.0,34.6,30.05,West,270,0.0,2.0,72,0.04,,,0.26,Weather View 32 v70,2013-04-05 08:50:00,
2013-04-05 04:55:00,43.0,34.6,30.05,West,270,0.0,2.0,72,0.04,,,0.27,Weather View 32 v70,2013-04-05 08:55:00,
2013-04-05 05:00:00,42.0,33.3,30.05,West,270,0.0,2.0,71,0.04,,,0.27,Weather View 32 v70,2013-04-05 09:00:00,
2013-04-05 05:10:00,42.0,33.3,30.06,West,270,0.0,2.0,71,0.03,,,0.27,Weather View 32 v70,2013-04-05 09:10:00,
2013-04-05 05:15:00,42.0,33.3,30.06,SE,135,0.0,2.0,71,0.03,,,0.27,Weather View 32 v70,2013-04-05 09:15:00,
2013-04-05 05:20:00,42.0,33.3,30.06,South,180,0.0,2.0,71,0.02,,,0.27,Weather View 32 v70,2013-04-05 09:20:00,
2013-04-05 05:25:00,42.0,33.3,30.05,West,270,0.0,2.0,71,0.02,,,0.27,Weather View 32 v70,2013-04-05 09:25:00,
2013-04-05 05:30:00,42.0,33.3,30.05,NW,315,0.0,2.0,71,0.02,,,0.27,Weather View 32 v70,2013-04-05 09:30:00,
2013-04-05 05:35:00,42.0,33.3,30.04,West,270,0.0,2.0,71,0.01,,,0.27,Weather View 32 v70,2013-04-05 09:35:00,
2013-04-05 05:40:00,42.0,33.3,30.04,NW,315,0.0,4.0,71,0.01,,,0.27,Weather View 32 v70,2013-04-05 09:40:00,
2013-04-05 05:45:00,42.0,33.3,30.04,NW,315,0.0,4.0,71,0.01,,,0.27,Weather View 32 v70,2013-04-05 09:45:00,
2013-04-05 05:50:00,42.0,33.3,30.04,West,270,0.0,4.0,71,0.01,,,0.27,Weather View 32 v70,2013-04-05 09:50:00,
2013-04-05 06:00:00,41.0,32.3,30.05,West,270,0.0,4.0,71,0.00,,,0.27,Weather View 32 v70,2013-04-05 10:00:00,
2013-04-05 06:05:00,41.0,32.3,30.06,West,270,0.0,4.0,71,0.00,,,0.27,Weather View 32 v70,2013-04-05 10:05:00,
2013-04-05 06:15:00,41.0,32.3,30.07,North,360,0.0,4.0,71,0.00,,,0.27,Weather View 32 v70,2013-04-05 10:15:00,
2013-04-05 06:20:00,41.0,32.3,30.07,NW,315,0.0,4.0,71,0.00,,,0.27,Weather View 32 v70,2013-04-05 10:20:00,
2013-04-05 06:25:00,41.0,32.3,30.06,NW,315,0.0,4.0,71,0.00,,,0.27,Weather View 32 v70,2013-04-05 10:25:00,
2013-04-05 06:35:00,41.0,32.3,30.06,WNW,292,0.0,4.0,71,0.00,,,0.27,Weather View 32 v70,2013-04-05 10:35:00,
2013-04-05 06:40:00,41.0,32.3,30.06,NW,315,0.0,3.0,71,0.00,,,0.27,Weather View 32 v70,2013-04-05 10:40:00,
2013-04-05 06:45:00,41.0,32.3,30.06,West,270,0.0,3.0,71,0.00,,,0.27,Weather View 32 v70,2013-04-05 10:45:00,
2013-04-05 06:50:00,41.0,32.3,30.06,NW,315,0.0,3.0,71,0.00,,,0.27,Weather View 32 v70,2013-04-05 10:50:00,
2013-04-05 06:55:00,41.0,32.3,30.07,NW,315,0.0,3.0,71,0.00,,,0.27,Weather View 32 v70,2013-04-05 10:55:00,
2013-04-05 07:00:00,41.0,32.3,30.07,NW,315,0.0,3.0,71,0.00,,,0.27,Weather View 32 v70,2013-04-05 11:00:00,
2013-04-05 07:05:00,41.0,32.3,30.08,WNW,292,0.0,0.0,71,0.00,,,0.27,Weather View 32 v70,2013-04-05 11:05:00,
2013-04-05 07:15:00,41.0,32.3,30.07,WNW,292,0.0,0.0,71,0.00,,,0.27,Weather View 32 v70,2013-04-05 11:15:00,
2013-04-05 07:20:00,41.0,32.3,30.07,WNW,292,0.0,0.0,71,0.00,,,0.27,Weather View 32 v70,2013-04-05 11:20:00,
2013-04-05 07:25:00,41.0,32.3,30.07,NW,315,0.0,0.0,71,0.00,,,0.27,Weather View 32 v70,2013-04-05 11:25:00,
2013-04-05 07:30:00,41.0,32.3,30.07,West,270,0.0,0.0,71,0.00,,,0.27,Weather View 32 v70,2013-04-05 11:30:00,
2013-04-05 07:40:00,41.0,32.3,30.07,NW,315,0.0,0.0,71,0.00,,,0.27,Weather View 32 v70,2013-04-05 11:40:00,
2013-04-05 07:45:00,41.0,32.3,30.06,WNW,292,0.0,1.0,71,0.00,,,0.27,Weather View 32 v70,2013-04-05 11:45:00,
2013-04-05 07:50:00,41.0,32.3,30.06,WNW,292,0.0,1.0,71,0.00,,,0.27,Weather View 32 v70,2013-04-05 11:50:00,
2013-04-05 07:55:00,41.0,32.3,30.06,WNW,292,0.0,1.0,71,0.00,,,0.27,Weather View 32 v70,2013-04-05 11:55:00,
2013-04-05 08:00:00,41.0,32.3,30.06,West,270,0.0,3.0,71,0.00,,,0.27,Weather View 32 v70,2013-04-05 12:00:00,
2013-04-05 08:05:00,41.0,32.3,30.07,East,90,0.0,3.0,71,0.00,,,0.27,Weather View 32 v70,2013-04-05 12:05:00,
2013-04-05 08:15:00,42.0,33.3,30.09,WNW,292,0.0,3.0,71,0.00,,,0.27,Weather View 32 v70,2013-04-05 12:15:00,
2013-04-05 08:20:00,42.0,33.3,30.09,WNW,292,0.0,3.0,71,0.00,,,0.27,Weather View 32 v70,2013-04-05 12:20:00,
2013-04-05 08:25:00,42.0,33.3,30.09,WNW,292,0.0,3.0,71,0.00,,,0.27,Weather View 32 v70,2013-04-05 12:25:00,
2013-04-05 08:30:00,42.0,33.3,30.09,NW,315,0.0,3.0,71,0.00,,,0.27,Weather View 32 v70,2013-04-05 12:30:00,
2013-04-05 08:40:00,42.0,33.3,30.09,West,270,0.0,3.0,71,0.00,,,0.27,Weather View 32 v70,2013-04-05 12:40:00,
2013-04-05 08:45:00,42.0,33.6,30.09,WNW,292,0.0,3.0,72,0.00,,,0.27,Weather View 32 v70,2013-04-05 12:45:00,
2013-04-05 08:50:00,42.0,33.6,30.09,West,270,0.0,3.0,72,0.00,,,0.27,Weather View 32 v70,2013-04-05 12:50:00,
2013-04-05 08:55:00,42.0,33.6,30.11,West,270,0.0,3.0,72,0.00,,,0.27,Weather View 32 v70,2013-04-05 12:55:00,
2013-04-05 09:00:00,43.0,34.9,30.11,NW,315,0.0,3.0,73,0.00,,,0.27,Weather View 32 v70,2013-04-05 13:00:00,
2013-04-05 09:05:00,43.0,34.9,30.10,NW,315,0.0,2.0,73,0.00,,,0.27,Weather View 32 v70,2013-04-05 13:05:00,
2013-04-05 09:10:00,43.0,34.9,30.10,NW,315,0.0,0.0,73,0.00,,,0.27,Weather View 32 v70,2013-04-05 13:10:00,
2013-04-05 09:15:00,43.0,34.9,30.09,West,270,0.0,0.0,73,0.00,,,0.27,Weather View 32 v70,2013-04-05 13:15:00,
2013-04-05 09:25:00,43.0,34.9,30.10,South,180,0.0,0.0,73,0.00,,,0.27,Weather View 32 v70,2013-04-05 13:25:00,
2013-04-05 09:30:00,44.0,35.9,30.10,West,270,0.0,0.0,73,0.00,,,0.27,Weather View 32 v70,2013-04-05 13:30:00,
2013-04-05 09:40:00,44.0,35.9,30.11,West,270,0.0,0.0,73,0.00,,,0.27,Weather View 32 v70,2013-04-05 13:40:00,
2013-04-05 09:45:00,44.0,36.2,30.10,NW,315,0.0,0.0,74,0.00,,,0.27,Weather View 32 v70,2013-04-05 13:45:00,
2013-04-05 09:50:00,44.0,36.2,30.10,NW,315,0.0,0.0,74,0.00,,,0.27,Weather View 32 v70,2013-04-05 13:50:00,
2013-04-05 10:00:00,44.0,36.2,30.11,SE,135,0.0,0.0,74,0.00,,,0.27,Weather View 32 v70,2013-04-05 14:00:00,
2013-04-05 10:05:00,44.0,36.2,30.13,SE,135,0.0,0.0,74,0.00,,,0.27,Weather View 32 v70,2013-04-05 14:05:00,
2013-04-05 10:10:00,45.0,37.2,30.13,SE,135,0.0,0.0,74,0.00,,,0.27,Weather View 32 v70,2013-04-05 14:10:00,
2013-04-05 10:15:00,45.0,37.2,30.12,SE,135,0.0,0.0,74,0.00,,,0.27,Weather View 32 v70,2013-04-05 14:15:00,
2013-04-05 10:20:00,45.0,37.2,30.12,South,180,0.0,0.0,74,0.00,,,0.27,Weather View 32 v70,2013-04-05 14:20:00,
2013-04-05 10:30:00,45.0,37.2,30.13,WNW,292,0.0,0.0,74,0.00,,,0.27,Weather View 32 v70,2013-04-05 14:30:00,
2013-04-05 10:40:00,45.0,37.2,30.12,NW,315,0.0,0.0,74,0.00,,,0.27,Weather View 32 v70,2013-04-05 14:40:00,
2013-04-05 10:45:00,45.0,37.2,30.12,NW,315,0.0,0.0,74,0.00,,,0.27,Weather View 32 v70,2013-04-05 14:45:00,
2013-04-05 10:50:00,46.0,38.2,30.12,NW,315,0.0,0.0,74,0.00,,,0.27,Weather View 32 v70,2013-04-05 14:50:00,
2013-04-05 11:00:00,46.0,38.2,30.12,NW,315,0.0,0.0,74,0.00,,,0.27,Weather View 32 v70,2013-04-05 15:00:00,
2013-04-05 11:05:00,46.0,38.2,30.11,East,90,0.0,0.0,74,0.00,,,0.27,Weather View 32 v70,2013-04-05 15:05:00,
2013-04-05 11:15:00,47.0,39.5,30.11,West,270,0.0,0.0,75,0.00,,,0.27,Weather View 32 v70,2013-04-05 15:15:00,
2013-04-05 11:20:00,48.0,40.8,30.11,West,270,0.0,0.0,76,0.00,,,0.27,Weather View 32 v70,2013-04-05 15:20:00,
2013-04-05 11:30:00,49.0,41.8,30.11,West,270,0.0,0.0,76,0.00,,,0.27,Weather View 32 v70,2013-04-05 15:30:00,
2013-04-05 11:35:00,49.0,41.8,30.09,West,270,0.0,0.0,76,0.00,,,0.27,Weather View 32 v70,2013-04-05 15:35:00,
2013-04-05 11:40:00,50.0,42.7,30.09,West,270,0.0,5.0,76,0.00,,,0.27,Weather View 32 v70,2013-04-05 15:40:00,
2013-04-05 11:45:00,51.0,43.7,30.07,West,270,0.0,5.0,76,0.00,,,0.27,Weather View 32 v70,2013-04-05 15:45:00,
2013-04-05 11:55:00,53.0,46.0,30.08,NW,315,0.0,5.0,77,0.00,,,0.27,Weather View 32 v70,2013-04-05 15:55:00,
2013-04-05 12:05:00,55.0,48.3,30.08,WNW,292,0.0,5.0,78,0.00,,,0.27,Weather View 32 v70,2013-04-05 16:05:00,
2013-04-05 12:10:00,55.0,48.3,30.08,West,270,0.0,5.0,78,0.00,,,0.27,Weather View 32 v70,2013-04-05 16:10:00,
2013-04-05 12:15:00,56.0,49.2,30.06,SW,225,0.0,5.0,78,0.00,,,0.27,Weather View 32 v70,2013-04-05 16:15:00,
2013-04-05 12:25:00,57.0,50.2,30.06,West,270,0.0,5.0,78,0.00,,,0.27,Weather View 32 v70,2013-04-05 16:25:00,
2013-04-05 12:35:00,58.0,51.2,30.06,West,270,0.0,5.0,78,0.00,,,0.27,Weather View 32 v70,2013-04-05 16:35:00,
2013-04-05 12:45:00,58.0,51.2,30.06,SE,135,0.0,4.0,78,0.00,,,0.27,Weather View 32 v70,2013-04-05 16:45:00,
2013-04-05 12:50:00,58.0,51.2,30.06,West,270,0.0,4.0,78,0.00,,,0.27,Weather View 32 v70,2013-04-05 16:50:00,
2013-04-05 12:55:00,58.0,51.2,30.05,West,270,0.0,4.0,78,0.00,,,0.27,Weather View 32 v70,2013-04-05 16:55:00,
2013-04-05 13:00:00,58.0,51.2,30.05,West,270,0.0,4.0,78,0.00,,,0.27,Weather View 32 v70,2013-04-05 17:00:00,
2013-04-05 13:10:00,59.0,52.1,30.04,West,270,0.0,4.0,78,0.00,,,0.27,Weather View 32 v70,2013-04-05 17:10:00,
2013-04-05 13:15:00,59.0,52.1,30.04,NE,45,0.0,4.0,78,0.00,,,0.27,Weather View 32 v70,2013-04-05 17:15:00,
2013-04-05 13:20:00,59.0,52.1,30.04,NE,45,0.0,4.0,78,0.00,,,0.27,Weather View 32 v70,2013-04-05 17:20:00,
2013-04-05 13:25:00,60.0,53.5,30.03,SE,135,0.0,3.0,79,0.00,,,0.27,Weather View 32 v70,2013-04-05 17:25:00,
2013-04-05 13:35:00,61.0,54.4,30.02,SW,225,0.0,3.0,79,0.00,,,0.27,Weather View 32 v70,2013-04-05 17:35:00,
2013-04-05 13:40:00,62.0,55.4,30.02,West,270,0.0,3.0,79,0.00,,,0.27,Weather View 32 v70,2013-04-05 17:40:00,
2013-04-05 13:45:00,62.0,55.4,30.02,NE,45,0.0,4.0,79,0.00,,,0.27,Weather View 32 v70,2013-04-05 17:45:00,
2013-04-05 13:52:00,62.0,55.4,30.02,East,90,0.0,4.0,79,0.00,,,0.27,Weather View 32 v70,2013-04-05 17:52:00,
2013-04-05 14:00:00,62.0,55.4,30.03,NW,315,0.0,4.0,79,0.00,,,0.27,Weather View 32 v70,2013-04-05 18:00:00,
2013-04-05 14:10:00,62.0,55.4,30.02,NW,315,0.0,4.0,79,0.00,,,0.27,Weather View 32 v70,2013-04-05 18:10:00,
2013-04-05 14:15:00,63.0,56.4,30.01,SE,135,0.0,4.0,79,0.00,,,0.27,Weather View 32 v70,2013-04-05 18:15:00,
2013-04-05 14:20:00,63.0,56.4,30.01,NE,45,0.0,4.0,79,0.00,,,0.27,Weather View 32 v70,2013-04-05 18:20:00,
2013-04-05 14:30:00,63.0,56.4,30.01,East,90,0.0,4.0,79,0.00,,,0.27,Weather View 32 v70,2013-04-05 18:30:00,
2013-04-05 14:35:00,63.0,56.4,30.00,North,360,0.0,4.0,79,0.00,,,0.27,Weather View 32 v70,2013-04-05 18:35:00,
2013-04-05 14:40:00,63.0,56.4,30.00,SE,135,0.0,4.0,79,0.00,,,0.27,Weather View 32 v70,2013-04-05 18:40:00,
2013-04-05 14:45:00,64.0,57.7,30.00,East,90,0.0,3.0,80,0.00,,,0.27,Weather View 32 v70,2013-04-05 18:45:00,
2013-04-05 14:50:00,64.0,57.7,30.00,NW,315,3.0,3.0,80,0.00,,,0.27,Weather View 32 v70,2013-04-05 18:50:00,
2013-04-05 14:55:00,65.0,58.7,29.99,West,270,0.0,3.0,80,0.00,,,0.27,Weather View 32 v70,2013-04-05 18:55:00,
2013-04-05 15:05:00,66.0,59.6,29.99,SW,225,0.0,3.0,80,0.00,,,0.27,Weather View 32 v70,2013-04-05 19:05:00,
2013-04-05 15:10:00,66.0,59.6,29.99,South,180,0.0,3.0,80,0.00,,,0.27,Weather View 32 v70,2013-04-05 19:10:00,
2013-04-05 15:15:00,66.0,59.6,29.98,South,180,0.0,3.0,80,0.00,,,0.27,Weather View 32 v70,2013-04-05 19:15:00,
2013-04-05 15:20:00,66.0,59.6,29.98,SW,225,0.0,3.0,80,0.00,,,0.27,Weather View 32 v70,2013-04-05 19:20:00,
2013-04-05 15:30:00,67.0,60.6,29.97,South,180,0.0,3.0,80,0.00,,,0.27,Weather View 32 v70,2013-04-05 19:30:00,
2013-04-05 15:35:00,68.0,61.6,29.96,SE,135,0.0,3.0,80,0.00,,,0.27,Weather View 32 v70,2013-04-05 19:35:00,
2013-04-05 15:45:00,68.0,61.6,29.96,South,180,0.0,3.0,80,0.00,,,0.27,Weather View 32 v70,2013-04-05 19:45:00,
2013-04-05 15:50:00,68.0,61.6,29.96,SW,225,0.0,3.0,80,0.00,,,0.27,Weather View 32 v70,2013-04-05 19:50:00,
2013-04-05 15:55:00,69.0,62.6,29.96,NW,315,0.0,0.0,80,0.00,,,0.27,Weather View 32 v70,2013-04-05 19:55:00,
2013-04-05 16:05:00,69.0,62.6,29.96,West,270,0.0,0.0,80,0.00,,,0.27,Weather View 32 v70,2013-04-05 20:05:00,
2013-04-05 16:10:00,68.0,61.6,29.96,West,270,0.0,0.0,80,0.00,,,0.27,Weather View 32 v70,2013-04-05 20:10:00,
2013-04-05 16:20:00,68.0,61.6,29.96,NE,45,0.0,3.0,80,0.00,,,0.27,Weather View 32 v70,2013-04-05 20:20:00,
2013-04-05 16:25:00,68.0,61.6,29.95,North,360,0.0,3.0,80,0.00,,,0.27,Weather View 32 v70,2013-04-05 20:25:00,
2013-04-05 16:30:00,69.0,62.6,29.95,NE,45,0.0,3.0,80,0.00,,,0.27,Weather View 32 v70,2013-04-05 20:30:00,
2013-04-05 16:40:00,68.0,61.6,29.95,East,90,0.0,3.0,80,0.00,,,0.27,Weather View 32 v70,2013-04-05 20:40:00,
2013-04-05 16:50:00,68.0,61.6,29.96,East,90,0.0,3.0,80,0.00,,,0.27,Weather View 32 v70,2013-04-05 20:50:00,
2013-04-05 16:55:00,68.0,61.6,29.96,East,90,0.0,3.0,80,0.00,,,0.27,Weather View 32 v70,2013-04-05 20:55:00,
2013-04-05 17:05:00,67.0,60.6,29.97,NW,315,0.0,3.0,80,0.00,,,0.27,Weather View 32 v70,2013-04-05 21:05:00,
2013-04-05 17:10:00,67.0,60.6,29.97,NW,315,0.0,3.0,80,0.00,,,0.27,Weather View 32 v70,2013-04-05 21:10:00,
2013-04-05 17:15:00,67.0,60.6,29.97,East,90,0.0,0.0,80,0.00,,,0.27,Weather View 32 v70,2013-04-05 21:15:00,
2013-04-05 17:20:00,66.0,59.6,29.97,NE,45,0.0,0.0,80,0.00,,,0.27,Weather View 32 v70,2013-04-05 21:20:00,
2013-04-05 17:30:00,66.0,59.6,29.97,East,90,0.0,4.0,80,0.00,,,0.27,Weather View 32 v70,2013-04-05 21:30:00,
2013-04-05 17:35:00,66.0,59.6,29.97,West,270,0.0,4.0,80,0.00,,,0.27,Weather View 32 v70,2013-04-05 21:35:00,
2013-04-05 17:40:00,65.0,58.7,29.97,SW,225,0.0,4.0,80,0.00,,,0.27,Weather View 32 v70,2013-04-05 21:40:00,
2013-04-05 17:50:00,65.0,58.7,29.98,West,270,0.0,4.0,80,0.00,,,0.27,Weather View 32 v70,2013-04-05 21:50:00,
2013-04-05 17:55:00,65.0,58.7,29.98,South,180,0.0,4.0,80,0.00,,,0.27,Weather View 32 v70,2013-04-05 21:55:00,
2013-04-05 18:05:00,64.0,57.7,29.99,SW,225,0.0,4.0,80,0.00,,,0.27,Weather View 32 v70,2013-04-05 22:05:00,
2013-04-05 18:10:00,64.0,57.7,29.99,North,360,0.0,4.0,80,0.00,,,0.27,Weather View 32 v70,2013-04-05 22:10:00,
2013-04-05 18:15:00,64.0,57.7,29.99,North,360,0.0,4.0,80,0.00,,,0.27,Weather View 32 v70,2013-04-05 22:15:00,
2013-04-05 18:20:00,64.0,57.7,29.99,North,360,0.0,4.0,80,0.00,,,0.27,Weather View 32 v70,2013-04-05 22:20:00,
2013-04-05 18:30:00,64.0,57.7,29.99,North,360,0.0,0.0,80,0.00,,,0.27,Weather View 32 v70,2013-04-05 22:30:00,
2013-04-05 18:40:00,63.0,56.4,30.00,NW,315,0.0,0.0,79,0.00,,,0.27,Weather View 32 v70,2013-04-05 22:40:00,
2013-04-05 18:50:00,63.0,56.4,30.00,NW,315,0.0,0.0,79,0.00,,,0.27,Weather View 32 v70,2013-04-05 22:50:00,
2013-04-05 18:55:00,63.0,56.4,30.00,NW,315,0.0,0.0,79,0.00,,,0.27,Weather View 32 v70,2013-04-05 22:55:00,
2013-04-05 19:00:00,62.0,55.4,30.00,NW,315,0.0,0.0,79,0.00,,,0.27,Weather View 32 v70,2013-04-05 23:00:00,
2013-04-05 19:05:00,62.0,55.4,30.02,NW,315,0.0,0.0,79,0.00,,,0.27,Weather View 32 v70,2013-04-05 23:05:00,
2013-04-05 19:10:00,62.0,55.4,30.02,NW,315,0.0,0.0,79,0.00,,,0.27,Weather View 32 v70,2013-04-05 23:10:00,
2013-04-05 19:15:00,61.0,54.4,30.02,NW,315,0.0,0.0,79,0.00,,,0.27,Weather View 32 v70,2013-04-05 23:15:00,
2013-04-05 19:25:00,60.0,53.5,30.02,NW,315,0.0,0.0,79,0.00,,,0.27,Weather View 32 v70,2013-04-05 23:25:00,
2013-04-05 19:30:00,60.0,53.5,30.02,NW,315,0.0,0.0,79,0.00,,,0.27,Weather View 32 v70,2013-04-05 23:30:00,
2013-04-05 19:35:00,60.0,53.5,30.03,NW,315,0.0,0.0,79,0.00,,,0.27,Weather View 32 v70,2013-04-05 23:35:00,
2013-04-05 19:45:00,59.0,52.5,30.04,NW,315,0.0,0.0,79,0.00,,,0.27,Weather View 32 v70,2013-04-05 23:45:00,
2013-04-05 19:50:00,58.0,51.2,30.04,NW,315,0.0,0.0,78,0.00,,,0.27,Weather View 32 v70,2013-04-05 23:50:00,
2013-04-05 19:55:00,58.0,51.2,30.05,NW,315,0.0,0.0,78,0.00,,,0.27,Weather View 32 v70,2013-04-05 23:55:00,
2013-04-05 20:05:00,57.0,50.2,30.05,NW,315,0.0,0.0,78,0.00,,,0.27,Weather View 32 v70,2013-04-06 00:05:00,
2013-04-05 20:10:00,56.0,49.2,30.05,NW,315,0.0,0.0,78,0.00,,,0.27,Weather View 32 v70,2013-04-06 00:10:00,
2013-04-05 20:20:00,55.0,48.3,30.06,NW,315,0.0,0.0,78,0.00,,,0.27,Weather View 32 v70,2013-04-06 00:20:00,
2013-04-05 20:25:00,55.0,48.3,30.06,NW,315,0.0,0.0,78,0.00,,,0.27,Weather View 32 v70,2013-04-06 00:25:00,
2013-04-05 20:30:00,55.0,48.3,30.06,NW,315,0.0,0.0,78,0.00,,,0.27,Weather View 32 v70,2013-04-06 00:30:00,
2013-04-05 20:40:00,54.0,47.3,30.07,NW,315,0.0,0.0,78,0.00,,,0.27,Weather View 32 v70,2013-04-06 00:40:00,
2013-04-05 20:50:00,53.0,46.0,30.08,NW,315,0.0,0.0,77,0.00,,,0.27,Weather View 32 v70,2013-04-06 00:50:00,
2013-04-05 21:00:00,52.0,45.0,30.09,NW,315,0.0,0.0,77,0.00,,,0.27,Weather View 32 v70,2013-04-06 01:00:00,
2013-04-05 21:05:00,52.0,45.0,30.10,NW,315,0.0,0.0,77,0.00,,,0.27,Weather View 32 v70,2013-04-06 01:05:00,
2013-04-05 21:15:00,51.0,44.0,30.11,NW,315,0.0,0.0,77,0.00,,,0.27,Weather View 32 v70,2013-04-06 01:15:00,
2013-04-05 21:25:00,51.0,44.0,30.12,NW,315,0.0,0.0,77,0.00,,,0.27,Weather View 32 v70,2013-04-06 01:25:00,
2013-04-05 21:30:00,50.0,43.1,30.12,NW,315,0.0,0.0,77,0.00,,,0.27,Weather View 32 v70,2013-04-06 01:30:00,
2013-04-05 21:35:00,50.0,43.1,30.13,NW,315,0.0,0.0,77,0.00,,,0.27,Weather View 32 v70,2013-04-06 01:35:00,
2013-04-05 21:45:00,50.0,43.1,30.13,NW,315,0.0,0.0,77,0.00,,,0.27,Weather View 32 v70,2013-04-06 01:45:00,
2013-04-05 21:55:00,49.0,42.1,30.13,NW,315,0.0,0.0,77,0.00,,,0.27,Weather View 32 v70,2013-04-06 01:55:00,
2013-04-05 22:00:00,49.0,42.1,30.13,NW,315,0.0,0.0,77,0.00,,,0.27,Weather View 32 v70,2013-04-06 02:00:00,
2013-04-05 22:10:00,48.0,41.1,30.14,NW,315,0.0,0.0,77,0.00,,,0.27,Weather View 32 v70,2013-04-06 02:10:00,
2013-04-05 22:15:00,48.0,41.1,30.14,NW,315,0.0,0.0,77,0.00,,,0.27,Weather View 32 v70,2013-04-06 02:15:00,
2013-04-05 22:25:00,48.0,41.1,30.15,NW,315,0.0,0.0,77,0.00,,,0.27,Weather View 32 v70,2013-04-06 02:25:00,
2013-04-05 22:30:00,47.0,39.8,30.15,NW,315,0.0,0.0,76,0.00,,,0.27,Weather View 32 v70,2013-04-06 02:30:00,
2013-04-05 22:35:00,47.0,39.8,30.15,NW,315,0.0,0.0,76,0.00,,,0.27,Weather View 32 v70,2013-04-06 02:35:00,
2013-04-05 22:45:00,47.0,39.8,30.15,NW,315,0.0,0.0,76,0.00,,,0.27,Weather View 32 v70,2013-04-06 02:45:00,
2013-04-05 22:50:00,47.0,39.8,30.15,NW,315,0.0,0.0,76,0.00,,,0.27,Weather View 32 v70,2013-04-06 02:50:00,
2013-04-05 22:55:00,46.0,38.8,30.16,NW,315,0.0,0.0,76,0.00,,,0.27,Weather View 32 v70,2013-04-06 02:55:00,
2013-04-05 23:00:00,46.0,38.8,30.16,NW,315,0.0,0.0,76,0.00,,,0.27,Weather View 32 v70,2013-04-06 03:00:00,
2013-04-05 23:05:00,46.0,38.8,30.16,NW,315,0.0,0.0,76,0.00,,,0.27,Weather View 32 v70,2013-04-06 03:05:00,
2013-04-05 23:15:00,46.0,38.8,30.16,NW,315,0.0,0.0,76,0.00,,,0.27,Weather View 32 v70,2013-04-06 03:15:00,
2013-04-05 23:20:00,46.0,38.5,30.16,NW,315,0.0,0.0,75,0.00,,,0.27,Weather View 32 v70,2013-04-06 03:20:00,
2013-04-05 23:25:00,45.0,37.5,30.16,NW,315,0.0,0.0,75,0.00,,,0.27,Weather View 32 v70,2013-04-06 03:25:00,
2013-04-05 23:30:00,45.0,37.5,30.16,NW,315,0.0,0.0,75,0.00,,,0.27,Weather View 32 v70,2013-04-06 03:30:00,
2013-04-05 23:40:00,45.0,37.5,30.16,NW,315,0.0,0.0,75,0.00,,,0.27,Weather View 32 v70,2013-04-06 03:40:00,
2013-04-05 23:50:00,45.0,37.5,30.16,NW,315,0.0,0.0,75,0.00,,,0.27,Weather View 32 v70,2013-04-06 03:50:00,
2013-04-05 23:55:00,45.0,37.5,30.16,NW,315,0.0,0.0,75,0.00,,,0.27,Weather View 32 v70,2013-04-06 03:55:00,